sensor_id;sensor_type;location;lat;lon;timestamp;P1;durP1;ratioP1;P2;durP2;ratioP2
52614;SDS011;38508;53.158;6.614;2022-12-10T00:01:49;57.13;;;21.27;;
52614;SDS011;38508;53.158;6.614;2022-12-10T00:04:17;56.72;;;21.67;;
52614;SDS011;38508;53.158;6.614;2022-12-10T00:06:43;53.72;;;21.38;;
52614;SDS011;38508;53.158;6.614;2022-12-10T00:09:13;50.88;;;20.70;;
52614;SDS011;38508;53.158;6.614;2022-12-10T00:11:41;54.92;;;20.92;;
52614;SDS011;38508;53.158;6.614;2022-12-10T00:14:07;56.13;;;21.83;;
52614;SDS011;38508;53.158;6.614;2022-12-10T00:16:32;54.47;;;21.63;;
52614;SDS011;38508;53.158;6.614;2022-12-10T00:18:59;52.05;;;20.45;;
52614;SDS011;38508;53.158;6.614;2022-12-10T00:21:26;53.78;;;21.60;;
52614;SDS011;38508;53.158;6.614;2022-12-10T00:23:54;55.25;;;21.33;;
52614;SDS011;38508;53.158;6.614;2022-12-10T00:26:33;53.28;;;21.73;;
52614;SDS011;38508;53.158;6.614;2022-12-10T00:29:01;56.22;;;22.15;;
52614;SDS011;38508;53.158;6.614;2022-12-10T00:31:30;53.00;;;21.58;;
52614;SDS011;38508;53.158;6.614;2022-12-10T00:33:59;55.38;;;22.27;;
52614;SDS011;38508;53.158;6.614;2022-12-10T00:36:28;56.95;;;22.75;;
52614;SDS011;38508;53.158;6.614;2022-12-10T00:38:59;56.88;;;21.08;;
52614;SDS011;38508;53.158;6.614;2022-12-10T00:41:25;54.13;;;21.95;;
52614;SDS011;38508;53.158;6.614;2022-12-10T00:43:51;66.28;;;24.73;;
52614;SDS011;38508;53.158;6.614;2022-12-10T00:46:17;60.97;;;22.30;;
52614;SDS011;38508;53.158;6.614;2022-12-10T00:48:43;57.30;;;22.95;;
52614;SDS011;38508;53.158;6.614;2022-12-10T00:51:17;55.95;;;21.10;;
52614;SDS011;38508;53.158;6.614;2022-12-10T00:53:45;63.60;;;23.92;;
52614;SDS011;38508;53.158;6.614;2022-12-10T00:56:12;62.25;;;23.77;;
52614;SDS011;38508;53.158;6.614;2022-12-10T00:58:40;59.13;;;23.45;;
52614;SDS011;38508;53.158;6.614;2022-12-10T01:01:10;65.68;;;24.48;;
52614;SDS011;38508;53.158;6.614;2022-12-10T01:03:49;68.20;;;24.38;;
52614;SDS011;38508;53.158;6.614;2022-12-10T01:06:21;61.85;;;22.88;;
52614;SDS011;38508;53.158;6.614;2022-12-10T01:08:52;61.13;;;23.67;;
52614;SDS011;38508;53.158;6.614;2022-12-10T01:11:20;62.38;;;23.48;;
52614;SDS011;38508;53.158;6.614;2022-12-10T01:13:47;65.90;;;24.63;;
52614;SDS011;38508;53.158;6.614;2022-12-10T01:16:14;69.15;;;25.15;;
52614;SDS011;38508;53.158;6.614;2022-12-10T01:18:42;73.03;;;25.85;;
52614;SDS011;38508;53.158;6.614;2022-12-10T01:21:09;60.30;;;23.35;;
52614;SDS011;38508;53.158;6.614;2022-12-10T01:23:37;70.40;;;25.88;;
52614;SDS011;38508;53.158;6.614;2022-12-10T01:26:05;69.38;;;25.20;;
52614;SDS011;38508;53.158;6.614;2022-12-10T01:28:34;84.97;;;28.50;;
52614;SDS011;38508;53.158;6.614;2022-12-10T01:31:05;73.35;;;25.95;;
52614;SDS011;38508;53.158;6.614;2022-12-10T01:33:39;71.25;;;26.90;;
52614;SDS011;38508;53.158;6.614;2022-12-10T01:36:09;63.63;;;23.30;;
52614;SDS011;38508;53.158;6.614;2022-12-10T01:38:37;65.88;;;24.63;;
52614;SDS011;38508;53.158;6.614;2022-12-10T01:41:03;61.60;;;25.10;;
52614;SDS011;38508;53.158;6.614;2022-12-10T01:43:47;72.18;;;26.13;;
52614;SDS011;38508;53.158;6.614;2022-12-10T01:46:19;70.38;;;25.55;;
52614;SDS011;38508;53.158;6.614;2022-12-10T01:48:46;73.05;;;26.58;;
52614;SDS011;38508;53.158;6.614;2022-12-10T01:51:12;64.47;;;24.73;;
52614;SDS011;38508;53.158;6.614;2022-12-10T01:53:39;65.72;;;25.00;;
52614;SDS011;38508;53.158;6.614;2022-12-10T01:56:06;79.70;;;27.05;;
52614;SDS011;38508;53.158;6.614;2022-12-10T01:58:33;68.70;;;26.13;;
52614;SDS011;38508;53.158;6.614;2022-12-10T02:06:48;69.43;;;27.17;;
52614;SDS011;38508;53.158;6.614;2022-12-10T02:14:17;82.57;;;27.27;;
52614;SDS011;38508;53.158;6.614;2022-12-10T02:17:02;77.93;;;28.48;;
52614;SDS011;38508;53.158;6.614;2022-12-10T02:22:21;93.93;;;29.95;;
52614;SDS011;38508;53.158;6.614;2022-12-10T02:24:49;76.82;;;26.08;;
52614;SDS011;38508;53.158;6.614;2022-12-10T02:27:28;79.53;;;27.98;;
52614;SDS011;38508;53.158;6.614;2022-12-10T02:30:04;74.32;;;27.05;;
52614;SDS011;38508;53.158;6.614;2022-12-10T02:32:35;82.18;;;28.92;;
52614;SDS011;38508;53.158;6.614;2022-12-10T02:35:06;67.78;;;26.27;;
52614;SDS011;38508;53.158;6.614;2022-12-10T02:37:39;75.63;;;29.08;;
52614;SDS011;38508;53.158;6.614;2022-12-10T02:40:15;78.47;;;26.95;;
52614;SDS011;38508;53.158;6.614;2022-12-10T02:42:46;88.95;;;29.48;;
52614;SDS011;38508;53.158;6.614;2022-12-10T02:45:14;68.80;;;26.50;;
52614;SDS011;38508;53.158;6.614;2022-12-10T02:47:42;73.65;;;27.48;;
52614;SDS011;38508;53.158;6.614;2022-12-10T02:50:08;82.15;;;29.70;;
52614;SDS011;38508;53.158;6.614;2022-12-10T02:52:36;77.40;;;27.33;;
52614;SDS011;38508;53.158;6.614;2022-12-10T02:55:02;77.05;;;28.30;;
52614;SDS011;38508;53.158;6.614;2022-12-10T03:05:17;78.78;;;28.25;;
52614;SDS011;38508;53.158;6.614;2022-12-10T03:08:03;80.65;;;28.02;;
52614;SDS011;38508;53.158;6.614;2022-12-10T03:13:14;78.00;;;28.10;;
52614;SDS011;38508;53.158;6.614;2022-12-10T03:15:41;73.32;;;26.90;;
52614;SDS011;38508;53.158;6.614;2022-12-10T03:18:10;75.75;;;28.23;;
52614;SDS011;38508;53.158;6.614;2022-12-10T03:20:38;84.00;;;29.02;;
52614;SDS011;38508;53.158;6.614;2022-12-10T03:23:07;75.78;;;28.67;;
52614;SDS011;38508;53.158;6.614;2022-12-10T03:25:36;72.82;;;28.40;;
52614;SDS011;38508;53.158;6.614;2022-12-10T03:28:04;76.03;;;28.52;;
52614;SDS011;38508;53.158;6.614;2022-12-10T03:30:31;83.53;;;29.80;;
52614;SDS011;38508;53.158;6.614;2022-12-10T03:32:58;88.57;;;29.85;;
52614;SDS011;38508;53.158;6.614;2022-12-10T03:35:25;91.38;;;29.38;;
52614;SDS011;38508;53.158;6.614;2022-12-10T03:37:51;85.72;;;29.67;;
52614;SDS011;38508;53.158;6.614;2022-12-10T03:40:19;73.28;;;29.15;;
52614;SDS011;38508;53.158;6.614;2022-12-10T03:42:47;82.28;;;30.33;;
52614;SDS011;38508;53.158;6.614;2022-12-10T03:45:12;87.78;;;28.80;;
52614;SDS011;38508;53.158;6.614;2022-12-10T03:47:39;78.78;;;29.38;;
52614;SDS011;38508;53.158;6.614;2022-12-10T03:50:05;91.03;;;29.90;;
52614;SDS011;38508;53.158;6.614;2022-12-10T03:52:33;76.28;;;27.50;;
52614;SDS011;38508;53.158;6.614;2022-12-10T03:54:59;79.75;;;28.83;;
52614;SDS011;38508;53.158;6.614;2022-12-10T03:57:24;90.85;;;30.60;;
52614;SDS011;38508;53.158;6.614;2022-12-10T03:59:50;72.47;;;28.20;;
52614;SDS011;38508;53.158;6.614;2022-12-10T04:02:16;75.97;;;28.38;;
52614;SDS011;38508;53.158;6.614;2022-12-10T04:04:41;90.00;;;31.30;;
52614;SDS011;38508;53.158;6.614;2022-12-10T04:07:07;74.28;;;27.27;;
52614;SDS011;38508;53.158;6.614;2022-12-10T04:09:34;73.82;;;28.90;;
52614;SDS011;38508;53.158;6.614;2022-12-10T04:11:59;72.43;;;27.25;;
52614;SDS011;38508;53.158;6.614;2022-12-10T04:14:25;75.47;;;27.88;;
52614;SDS011;38508;53.158;6.614;2022-12-10T04:17:10;79.00;;;28.00;;
52614;SDS011;38508;53.158;6.614;2022-12-10T04:19:36;91.28;;;30.60;;
52614;SDS011;38508;53.158;6.614;2022-12-10T04:22:02;79.45;;;29.45;;
52614;SDS011;38508;53.158;6.614;2022-12-10T04:24:47;78.13;;;28.25;;
52614;SDS011;38508;53.158;6.614;2022-12-10T04:27:51;76.68;;;26.92;;
52614;SDS011;38508;53.158;6.614;2022-12-10T04:30:17;76.43;;;27.25;;
52614;SDS011;38508;53.158;6.614;2022-12-10T04:32:43;72.72;;;27.95;;
52614;SDS011;38508;53.158;6.614;2022-12-10T04:35:09;79.03;;;27.90;;
52614;SDS011;38508;53.158;6.614;2022-12-10T04:37:35;76.53;;;26.88;;
52614;SDS011;38508;53.158;6.614;2022-12-10T04:40:00;79.30;;;28.15;;
52614;SDS011;38508;53.158;6.614;2022-12-10T04:42:26;69.00;;;25.67;;
52614;SDS011;38508;53.158;6.614;2022-12-10T04:44:52;73.93;;;27.55;;
52614;SDS011;38508;53.158;6.614;2022-12-10T04:47:18;69.43;;;25.33;;
52614;SDS011;38508;53.158;6.614;2022-12-10T04:49:43;65.05;;;24.60;;
52614;SDS011;38508;53.158;6.614;2022-12-10T04:52:10;70.47;;;25.55;;
52614;SDS011;38508;53.158;6.614;2022-12-10T04:54:37;72.10;;;26.50;;
52614;SDS011;38508;53.158;6.614;2022-12-10T04:57:03;74.93;;;26.20;;
52614;SDS011;38508;53.158;6.614;2022-12-10T04:59:28;78.13;;;26.83;;
52614;SDS011;38508;53.158;6.614;2022-12-10T05:01:54;78.82;;;27.90;;
52614;SDS011;38508;53.158;6.614;2022-12-10T05:04:20;76.18;;;27.80;;
52614;SDS011;38508;53.158;6.614;2022-12-10T05:06:47;69.05;;;26.67;;
52614;SDS011;38508;53.158;6.614;2022-12-10T05:09:14;81.13;;;28.23;;
52614;SDS011;38508;53.158;6.614;2022-12-10T05:11:40;77.35;;;27.27;;
52614;SDS011;38508;53.158;6.614;2022-12-10T05:14:06;76.85;;;27.73;;
52614;SDS011;38508;53.158;6.614;2022-12-10T05:16:32;84.57;;;28.80;;
52614;SDS011;38508;53.158;6.614;2022-12-10T05:18:58;76.75;;;27.27;;
52614;SDS011;38508;53.158;6.614;2022-12-10T05:21:25;75.78;;;28.55;;
52614;SDS011;38508;53.158;6.614;2022-12-10T05:24:12;72.18;;;26.85;;
52614;SDS011;38508;53.158;6.614;2022-12-10T05:26:38;65.97;;;24.80;;
52614;SDS011;38508;53.158;6.614;2022-12-10T05:29:04;77.40;;;28.77;;
52614;SDS011;38508;53.158;6.614;2022-12-10T05:31:31;80.93;;;28.30;;
52614;SDS011;38508;53.158;6.614;2022-12-10T05:33:57;74.55;;;28.02;;
52614;SDS011;38508;53.158;6.614;2022-12-10T05:36:24;86.65;;;29.40;;
52614;SDS011;38508;53.158;6.614;2022-12-10T05:38:53;78.72;;;28.88;;
52614;SDS011;38508;53.158;6.614;2022-12-10T05:41:21;79.25;;;28.95;;
52614;SDS011;38508;53.158;6.614;2022-12-10T05:43:49;83.95;;;28.92;;
52614;SDS011;38508;53.158;6.614;2022-12-10T05:46:17;72.20;;;28.45;;
52614;SDS011;38508;53.158;6.614;2022-12-10T05:48:44;92.13;;;31.38;;
52614;SDS011;38508;53.158;6.614;2022-12-10T05:51:12;79.15;;;28.75;;
52614;SDS011;38508;53.158;6.614;2022-12-10T05:53:39;81.88;;;28.95;;
52614;SDS011;38508;53.158;6.614;2022-12-10T05:56:07;88.43;;;32.72;;
52614;SDS011;38508;53.158;6.614;2022-12-10T05:58:38;114.88;;;35.53;;
52614;SDS011;38508;53.158;6.614;2022-12-10T06:01:06;99.35;;;32.03;;
52614;SDS011;38508;53.158;6.614;2022-12-10T06:03:33;100.28;;;33.05;;
52614;SDS011;38508;53.158;6.614;2022-12-10T06:05:59;103.05;;;33.42;;
52614;SDS011;38508;53.158;6.614;2022-12-10T06:08:25;99.40;;;32.72;;
52614;SDS011;38508;53.158;6.614;2022-12-10T06:10:50;110.07;;;33.90;;
52614;SDS011;38508;53.158;6.614;2022-12-10T06:13:16;99.47;;;33.25;;
52614;SDS011;38508;53.158;6.614;2022-12-10T06:15:42;109.63;;;33.78;;
52614;SDS011;38508;53.158;6.614;2022-12-10T06:18:08;94.30;;;31.25;;
52614;SDS011;38508;53.158;6.614;2022-12-10T06:20:36;110.53;;;33.65;;
52614;SDS011;38508;53.158;6.614;2022-12-10T06:23:03;94.55;;;31.35;;
52614;SDS011;38508;53.158;6.614;2022-12-10T06:25:30;100.80;;;32.83;;
52614;SDS011;38508;53.158;6.614;2022-12-10T06:27:56;98.10;;;33.45;;
52614;SDS011;38508;53.158;6.614;2022-12-10T06:30:21;101.75;;;32.75;;
52614;SDS011;38508;53.158;6.614;2022-12-10T06:32:47;102.10;;;32.72;;
52614;SDS011;38508;53.158;6.614;2022-12-10T06:35:12;110.75;;;35.55;;
52614;SDS011;38508;53.158;6.614;2022-12-10T06:37:41;101.22;;;33.30;;
52614;SDS011;38508;53.158;6.614;2022-12-10T06:40:07;95.70;;;32.30;;
52614;SDS011;38508;53.158;6.614;2022-12-10T06:42:33;99.63;;;33.47;;
52614;SDS011;38508;53.158;6.614;2022-12-10T06:44:59;107.50;;;34.17;;
52614;SDS011;38508;53.158;6.614;2022-12-10T06:47:24;101.15;;;33.05;;
52614;SDS011;38508;53.158;6.614;2022-12-10T06:49:50;123.70;;;35.30;;
52614;SDS011;38508;53.158;6.614;2022-12-10T06:52:16;113.80;;;34.50;;
52614;SDS011;38508;53.158;6.614;2022-12-10T06:54:42;106.57;;;35.95;;
52614;SDS011;38508;53.158;6.614;2022-12-10T06:57:07;95.22;;;33.78;;
52614;SDS011;38508;53.158;6.614;2022-12-10T06:59:33;104.88;;;33.47;;
52614;SDS011;38508;53.158;6.614;2022-12-10T07:01:59;108.63;;;34.08;;
52614;SDS011;38508;53.158;6.614;2022-12-10T07:04:25;103.32;;;32.42;;
52614;SDS011;38508;53.158;6.614;2022-12-10T07:06:51;103.05;;;32.38;;
52614;SDS011;38508;53.158;6.614;2022-12-10T07:09:16;108.50;;;33.72;;
52614;SDS011;38508;53.158;6.614;2022-12-10T07:11:42;101.25;;;32.47;;
52614;SDS011;38508;53.158;6.614;2022-12-10T07:14:10;101.75;;;32.08;;
52614;SDS011;38508;53.158;6.614;2022-12-10T07:16:39;117.82;;;32.45;;
52614;SDS011;38508;53.158;6.614;2022-12-10T07:19:04;100.55;;;29.70;;
52614;SDS011;38508;53.158;6.614;2022-12-10T07:21:31;216.93;;;38.28;;
52614;SDS011;38508;53.158;6.614;2022-12-10T07:24:00;96.97;;;30.88;;
52614;SDS011;38508;53.158;6.614;2022-12-10T07:26:28;87.00;;;29.58;;
52614;SDS011;38508;53.158;6.614;2022-12-10T07:28:55;92.15;;;30.88;;
52614;SDS011;38508;53.158;6.614;2022-12-10T07:31:21;86.65;;;28.63;;
52614;SDS011;38508;53.158;6.614;2022-12-10T07:33:47;116.00;;;33.65;;
52614;SDS011;38508;53.158;6.614;2022-12-10T07:36:15;103.40;;;31.77;;
52614;SDS011;38508;53.158;6.614;2022-12-10T07:38:41;105.18;;;32.28;;
52614;SDS011;38508;53.158;6.614;2022-12-10T07:41:08;102.53;;;32.30;;
52614;SDS011;38508;53.158;6.614;2022-12-10T07:43:36;91.47;;;29.90;;
52614;SDS011;38508;53.158;6.614;2022-12-10T07:46:07;134.32;;;34.55;;
52614;SDS011;38508;53.158;6.614;2022-12-10T07:48:38;108.03;;;31.88;;
52614;SDS011;38508;53.158;6.614;2022-12-10T07:51:05;106.85;;;33.28;;
52614;SDS011;38508;53.158;6.614;2022-12-10T07:53:31;108.45;;;33.35;;
52614;SDS011;38508;53.158;6.614;2022-12-10T07:55:58;105.30;;;30.42;;
52614;SDS011;38508;53.158;6.614;2022-12-10T07:58:23;107.95;;;30.67;;
52614;SDS011;38508;53.158;6.614;2022-12-10T08:00:49;99.95;;;30.88;;
52614;SDS011;38508;53.158;6.614;2022-12-10T08:03:15;122.32;;;30.48;;
52614;SDS011;38508;53.158;6.614;2022-12-10T08:05:41;112.10;;;31.35;;
52614;SDS011;38508;53.158;6.614;2022-12-10T08:08:06;96.72;;;32.38;;
52614;SDS011;38508;53.158;6.614;2022-12-10T08:10:36;105.45;;;31.83;;
52614;SDS011;38508;53.158;6.614;2022-12-10T08:13:03;117.25;;;32.10;;
52614;SDS011;38508;53.158;6.614;2022-12-10T08:15:29;106.80;;;30.15;;
52614;SDS011;38508;53.158;6.614;2022-12-10T08:17:55;106.40;;;31.40;;
52614;SDS011;38508;53.158;6.614;2022-12-10T08:20:21;108.47;;;33.13;;
52614;SDS011;38508;53.158;6.614;2022-12-10T08:22:48;133.55;;;33.22;;
52614;SDS011;38508;53.158;6.614;2022-12-10T08:25:14;125.88;;;32.55;;
52614;SDS011;38508;53.158;6.614;2022-12-10T08:27:39;112.57;;;31.98;;
52614;SDS011;38508;53.158;6.614;2022-12-10T08:30:05;125.25;;;34.03;;
52614;SDS011;38508;53.158;6.614;2022-12-10T08:32:32;113.07;;;34.00;;
52614;SDS011;38508;53.158;6.614;2022-12-10T08:34:57;117.38;;;35.17;;
52614;SDS011;38508;53.158;6.614;2022-12-10T08:37:23;100.25;;;31.30;;
52614;SDS011;38508;53.158;6.614;2022-12-10T08:39:50;130.02;;;33.55;;
52614;SDS011;38508;53.158;6.614;2022-12-10T08:42:24;100.82;;;31.90;;
52614;SDS011;38508;53.158;6.614;2022-12-10T08:44:51;98.78;;;31.73;;
52614;SDS011;38508;53.158;6.614;2022-12-10T08:47:17;125.38;;;33.70;;
52614;SDS011;38508;53.158;6.614;2022-12-10T08:49:43;107.93;;;32.10;;
52614;SDS011;38508;53.158;6.614;2022-12-10T08:52:09;110.25;;;32.67;;
52614;SDS011;38508;53.158;6.614;2022-12-10T08:54:35;145.30;;;37.83;;
52614;SDS011;38508;53.158;6.614;2022-12-10T08:57:01;164.00;;;36.17;;
52614;SDS011;38508;53.158;6.614;2022-12-10T08:59:26;95.78;;;29.88;;
52614;SDS011;38508;53.158;6.614;2022-12-10T09:01:52;109.57;;;32.00;;
52614;SDS011;38508;53.158;6.614;2022-12-10T09:04:18;182.40;;;34.42;;
52614;SDS011;38508;53.158;6.614;2022-12-10T09:06:43;182.23;;;33.92;;
52614;SDS011;38508;53.158;6.614;2022-12-10T09:09:09;105.85;;;32.30;;
52614;SDS011;38508;53.158;6.614;2022-12-10T09:11:35;134.25;;;34.05;;
52614;SDS011;38508;53.158;6.614;2022-12-10T09:14:01;116.88;;;35.47;;
52614;SDS011;38508;53.158;6.614;2022-12-10T09:16:34;102.60;;;32.33;;
52614;SDS011;38508;53.158;6.614;2022-12-10T09:19:01;97.38;;;30.58;;
52614;SDS011;38508;53.158;6.614;2022-12-10T09:21:29;99.72;;;32.03;;
52614;SDS011;38508;53.158;6.614;2022-12-10T09:23:55;101.10;;;32.17;;
52614;SDS011;38508;53.158;6.614;2022-12-10T09:26:21;98.15;;;32.33;;
52614;SDS011;38508;53.158;6.614;2022-12-10T09:28:48;117.25;;;33.92;;
52614;SDS011;38508;53.158;6.614;2022-12-10T09:31:15;102.72;;;31.73;;
52614;SDS011;38508;53.158;6.614;2022-12-10T09:33:42;94.90;;;31.45;;
52614;SDS011;38508;53.158;6.614;2022-12-10T09:36:08;107.38;;;30.58;;
52614;SDS011;38508;53.158;6.614;2022-12-10T09:38:39;109.35;;;32.50;;
52614;SDS011;38508;53.158;6.614;2022-12-10T09:41:31;118.65;;;34.13;;
52614;SDS011;38508;53.158;6.614;2022-12-10T09:44:21;106.75;;;32.50;;
52614;SDS011;38508;53.158;6.614;2022-12-10T09:46:55;128.20;;;35.05;;
52614;SDS011;38508;53.158;6.614;2022-12-10T09:49:37;117.38;;;34.58;;
52614;SDS011;38508;53.158;6.614;2022-12-10T09:52:04;109.72;;;33.20;;
52614;SDS011;38508;53.158;6.614;2022-12-10T09:54:39;115.53;;;35.40;;
52614;SDS011;38508;53.158;6.614;2022-12-10T09:57:10;146.35;;;36.50;;
52614;SDS011;38508;53.158;6.614;2022-12-10T09:59:55;114.38;;;32.33;;
52614;SDS011;38508;53.158;6.614;2022-12-10T10:02:28;111.50;;;34.88;;
52614;SDS011;38508;53.158;6.614;2022-12-10T10:07:38;116.57;;;35.65;;
52614;SDS011;38508;53.158;6.614;2022-12-10T10:10:25;151.35;;;39.22;;
52614;SDS011;38508;53.158;6.614;2022-12-10T10:12:52;116.53;;;35.05;;
52614;SDS011;38508;53.158;6.614;2022-12-10T10:15:32;98.57;;;30.85;;
52614;SDS011;38508;53.158;6.614;2022-12-10T10:21:18;96.68;;;30.88;;
52614;SDS011;38508;53.158;6.614;2022-12-10T10:23:50;154.80;;;37.85;;
52614;SDS011;38508;53.158;6.614;2022-12-10T10:26:17;166.82;;;39.03;;
52614;SDS011;38508;53.158;6.614;2022-12-10T10:28:43;110.38;;;33.75;;
52614;SDS011;38508;53.158;6.614;2022-12-10T10:31:29;152.77;;;38.97;;
52614;SDS011;38508;53.158;6.614;2022-12-10T10:33:58;109.93;;;34.97;;
52614;SDS011;38508;53.158;6.614;2022-12-10T10:36:28;155.60;;;38.55;;
52614;SDS011;38508;53.158;6.614;2022-12-10T10:38:56;112.07;;;34.05;;
52614;SDS011;38508;53.158;6.614;2022-12-10T10:41:34;139.70;;;37.80;;
52614;SDS011;38508;53.158;6.614;2022-12-10T10:44:04;107.38;;;34.33;;
52614;SDS011;38508;53.158;6.614;2022-12-10T10:46:37;107.40;;;34.92;;
52614;SDS011;38508;53.158;6.614;2022-12-10T10:52:15;114.50;;;35.38;;
52614;SDS011;38508;53.158;6.614;2022-12-10T10:54:42;120.85;;;37.00;;
52614;SDS011;38508;53.158;6.614;2022-12-10T10:57:11;134.60;;;38.05;;
52614;SDS011;38508;53.158;6.614;2022-12-10T10:59:41;118.72;;;36.33;;
52614;SDS011;38508;53.158;6.614;2022-12-10T11:08:04;108.25;;;33.65;;
52614;SDS011;38508;53.158;6.614;2022-12-10T11:10:32;116.35;;;33.53;;
52614;SDS011;38508;53.158;6.614;2022-12-10T11:13:02;103.72;;;32.15;;
52614;SDS011;38508;53.158;6.614;2022-12-10T11:15:42;105.97;;;32.70;;
52614;SDS011;38508;53.158;6.614;2022-12-10T11:20:59;102.93;;;31.77;;
52614;SDS011;38508;53.158;6.614;2022-12-10T11:23:45;98.43;;;31.35;;
52614;SDS011;38508;53.158;6.614;2022-12-10T11:29:03;97.85;;;31.52;;
52614;SDS011;38508;53.158;6.614;2022-12-10T11:37:30;102.53;;;31.48;;
52614;SDS011;38508;53.158;6.614;2022-12-10T11:40:25;96.80;;;29.73;;
52614;SDS011;38508;53.158;6.614;2022-12-10T11:56:52;86.80;;;28.05;;
52614;SDS011;38508;53.158;6.614;2022-12-10T11:59:36;79.55;;;27.73;;
52614;SDS011;38508;53.158;6.614;2022-12-10T12:02:17;91.25;;;28.30;;
52614;SDS011;38508;53.158;6.614;2022-12-10T12:12:41;76.60;;;24.58;;
52614;SDS011;38508;53.158;6.614;2022-12-10T12:15:37;75.18;;;26.48;;
52614;SDS011;38508;53.158;6.614;2022-12-10T12:18:12;78.95;;;25.80;;
52614;SDS011;38508;53.158;6.614;2022-12-10T12:20:59;71.47;;;25.58;;
52614;SDS011;38508;53.158;6.614;2022-12-10T12:24:12;73.70;;;25.33;;
52614;SDS011;38508;53.158;6.614;2022-12-10T12:26:32;70.32;;;24.40;;
52614;SDS011;38508;53.158;6.614;2022-12-10T12:29:12;70.38;;;24.52;;
52614;SDS011;38508;53.158;6.614;2022-12-10T12:31:56;66.75;;;24.67;;
52614;SDS011;38508;53.158;6.614;2022-12-10T12:37:21;70.13;;;25.25;;
52614;SDS011;38508;53.158;6.614;2022-12-10T12:42:38;63.10;;;23.05;;
52614;SDS011;38508;53.158;6.614;2022-12-10T12:50:46;73.72;;;24.20;;
52614;SDS011;38508;53.158;6.614;2022-12-10T12:53:16;70.95;;;25.27;;
52614;SDS011;38508;53.158;6.614;2022-12-10T12:58:22;68.88;;;25.33;;
52614;SDS011;38508;53.158;6.614;2022-12-10T13:00:50;67.38;;;24.42;;
52614;SDS011;38508;53.158;6.614;2022-12-10T13:05:56;73.68;;;25.83;;
52614;SDS011;38508;53.158;6.614;2022-12-10T13:08:47;85.90;;;27.77;;
52614;SDS011;38508;53.158;6.614;2022-12-10T13:11:34;76.88;;;24.90;;
52614;SDS011;38508;53.158;6.614;2022-12-10T13:22:06;72.60;;;25.48;;
52614;SDS011;38508;53.158;6.614;2022-12-10T13:29:44;72.10;;;26.02;;
52614;SDS011;38508;53.158;6.614;2022-12-10T13:34:45;74.28;;;25.35;;
52614;SDS011;38508;53.158;6.614;2022-12-10T13:39:53;76.65;;;25.33;;
52614;SDS011;38508;53.158;6.614;2022-12-10T13:42:30;73.38;;;25.50;;
52614;SDS011;38508;53.158;6.614;2022-12-10T13:47:51;75.82;;;26.15;;
52614;SDS011;38508;53.158;6.614;2022-12-10T14:09:14;80.82;;;25.92;;
52614;SDS011;38508;53.158;6.614;2022-12-10T14:11:56;89.40;;;28.08;;
52614;SDS011;38508;53.158;6.614;2022-12-10T14:14:32;105.88;;;30.50;;
52614;SDS011;38508;53.158;6.614;2022-12-10T14:17:04;124.93;;;31.30;;
52614;SDS011;38508;53.158;6.614;2022-12-10T14:19:35;94.18;;;27.35;;
52614;SDS011;38508;53.158;6.614;2022-12-10T14:22:05;113.88;;;27.70;;
52614;SDS011;38508;53.158;6.614;2022-12-10T14:24:34;98.30;;;27.33;;
52614;SDS011;38508;53.158;6.614;2022-12-10T14:27:12;136.70;;;30.52;;
52614;SDS011;38508;53.158;6.614;2022-12-10T14:29:48;87.85;;;26.65;;
52614;SDS011;38508;53.158;6.614;2022-12-10T14:32:16;88.25;;;27.52;;
52614;SDS011;38508;53.158;6.614;2022-12-10T14:34:52;123.00;;;31.58;;
52614;SDS011;38508;53.158;6.614;2022-12-10T14:37:23;103.80;;;29.13;;
52614;SDS011;38508;53.158;6.614;2022-12-10T14:39:54;83.65;;;27.80;;
52614;SDS011;38508;53.158;6.614;2022-12-10T14:42:20;85.95;;;26.13;;
52614;SDS011;38508;53.158;6.614;2022-12-10T14:44:49;81.90;;;26.02;;
52614;SDS011;38508;53.158;6.614;2022-12-10T14:47:21;78.93;;;25.85;;
52614;SDS011;38508;53.158;6.614;2022-12-10T14:49:48;78.95;;;25.95;;
52614;SDS011;38508;53.158;6.614;2022-12-10T14:52:17;79.97;;;27.35;;
52614;SDS011;38508;53.158;6.614;2022-12-10T14:54:48;78.07;;;25.92;;
52614;SDS011;38508;53.158;6.614;2022-12-10T14:57:16;73.93;;;24.73;;
52614;SDS011;38508;53.158;6.614;2022-12-10T15:00:07;86.40;;;27.20;;
52614;SDS011;38508;53.158;6.614;2022-12-10T15:02:42;74.00;;;24.55;;
52614;SDS011;38508;53.158;6.614;2022-12-10T15:05:18;71.68;;;24.60;;
52614;SDS011;38508;53.158;6.614;2022-12-10T15:07:54;98.25;;;27.77;;
52614;SDS011;38508;53.158;6.614;2022-12-10T15:13:02;87.47;;;26.30;;
52614;SDS011;38508;53.158;6.614;2022-12-10T15:15:33;92.85;;;28.33;;
52614;SDS011;38508;53.158;6.614;2022-12-10T15:20:37;86.47;;;26.13;;
52614;SDS011;38508;53.158;6.614;2022-12-10T15:28:29;164.70;;;32.08;;
52614;SDS011;38508;53.158;6.614;2022-12-10T15:31:41;111.07;;;28.30;;
52614;SDS011;38508;53.158;6.614;2022-12-10T15:33:51;75.50;;;25.15;;
52614;SDS011;38508;53.158;6.614;2022-12-10T15:38:49;76.13;;;24.30;;
52614;SDS011;38508;53.158;6.614;2022-12-10T15:41:32;92.78;;;26.88;;
52614;SDS011;38508;53.158;6.614;2022-12-10T15:44:23;74.32;;;23.50;;
52614;SDS011;38508;53.158;6.614;2022-12-10T15:49:40;81.75;;;24.48;;
52614;SDS011;38508;53.158;6.614;2022-12-10T15:52:09;78.32;;;23.40;;
52614;SDS011;38508;53.158;6.614;2022-12-10T15:54:40;97.38;;;27.58;;
52614;SDS011;38508;53.158;6.614;2022-12-10T15:57:11;84.15;;;24.88;;
52614;SDS011;38508;53.158;6.614;2022-12-10T15:59:41;76.70;;;24.63;;
52614;SDS011;38508;53.158;6.614;2022-12-10T16:02:17;73.43;;;24.67;;
52614;SDS011;38508;53.158;6.614;2022-12-10T16:07:50;84.47;;;24.27;;
52614;SDS011;38508;53.158;6.614;2022-12-10T16:10:18;82.93;;;24.33;;
52614;SDS011;38508;53.158;6.614;2022-12-10T16:12:45;95.75;;;26.15;;
52614;SDS011;38508;53.158;6.614;2022-12-10T16:15:20;101.05;;;25.92;;
52614;SDS011;38508;53.158;6.614;2022-12-10T16:17:49;87.35;;;26.27;;
52614;SDS011;38508;53.158;6.614;2022-12-10T16:22:48;91.97;;;25.40;;
52614;SDS011;38508;53.158;6.614;2022-12-10T16:25:14;117.60;;;28.17;;
52614;SDS011;38508;53.158;6.614;2022-12-10T16:27:40;91.38;;;25.45;;
52614;SDS011;38508;53.158;6.614;2022-12-10T16:30:50;86.88;;;25.40;;
52614;SDS011;38508;53.158;6.614;2022-12-10T16:33:00;100.60;;;25.83;;
52614;SDS011;38508;53.158;6.614;2022-12-10T16:35:26;86.00;;;25.10;;
52614;SDS011;38508;53.158;6.614;2022-12-10T16:37:51;87.55;;;25.23;;
52614;SDS011;38508;53.158;6.614;2022-12-10T16:40:22;92.38;;;24.75;;
52614;SDS011;38508;53.158;6.614;2022-12-10T16:42:49;81.13;;;24.58;;
52614;SDS011;38508;53.158;6.614;2022-12-10T16:47:54;81.15;;;25.95;;
52614;SDS011;38508;53.158;6.614;2022-12-10T16:50:20;88.57;;;26.42;;
52614;SDS011;38508;53.158;6.614;2022-12-10T16:52:47;82.55;;;25.40;;
52614;SDS011;38508;53.158;6.614;2022-12-10T16:55:16;89.07;;;25.63;;
52614;SDS011;38508;53.158;6.614;2022-12-10T16:57:44;91.32;;;27.20;;
52614;SDS011;38508;53.158;6.614;2022-12-10T17:00:14;84.75;;;24.85;;
52614;SDS011;38508;53.158;6.614;2022-12-10T17:02:49;114.47;;;26.73;;
52614;SDS011;38508;53.158;6.614;2022-12-10T17:05:24;86.20;;;24.92;;
52614;SDS011;38508;53.158;6.614;2022-12-10T17:07:58;83.28;;;24.58;;